Time;durP1;ratioP1;P1;durP2;ratioP2;P2;SDS_P1;SDS_P2;PMS_P1;PMS_P2;Temp;Humidity;BMP_temperature;BMP_pressure;BME280_temperature;BME280_humidity;BME280_pressure;Samples;Min_cycle;Max_cycle;Signal;HPM_P1;HPM_P2
2023/04/03 00:03:55;;;;;;;3.22;1.20;;;;;;;2.57;71.27;101003.81;10497326;28;20040;-76
2023/04/03 00:08:57;;;;;;;2.30;1.10;;;;;;;2.41;71.24;101007.88;10498005;28;20375;-75
2023/04/03 00:13:59;;;;;;;2.92;0.95;;;;;;;2.40;71.63;101009.63;10498983;28;20052;-75
2023/04/03 00:19:00;;;;;;;3.50;1.08;;;;;;;2.34;70.53;101025.06;10505189;28;20405;-75
2023/04/03 00:24:02;;;;;;;6.88;1.50;;;;;;;2.52;70.86;101025.41;10504355;28;20048;-75
2023/04/03 00:29:04;;;;;;;2.75;1.08;;;;;;;2.32;70.48;101031.94;10504884;28;20500;-75
2023/04/03 00:34:05;;;;;;;3.35;1.20;;;;;;;2.21;70.26;101029.19;10486879;28;20046;-75
2023/04/03 00:39:07;;;;;;;2.88;1.50;;;;;;;2.12;70.75;101030.72;10486646;28;20136;-74
2023/04/03 00:44:42;;;;;;;3.88;1.25;;;;;;;1.97;71.42;101031.31;10505484;28;20047;-75
2023/04/03 00:49:45;;;;;;;5.97;1.50;;;;;;;1.85;71.54;101034.53;10485981;28;20102;-75
2023/04/03 00:54:50;;;;;;;5.13;1.50;;;;;;;1.90;72.73;101032.03;10504062;28;20048;-75
2023/04/03 00:59:57;;;;;;;2.92;1.08;;;;;;;2.09;69.66;101031.53;10504885;28;20062;-75
2023/04/03 01:04:59;;;;;;;2.92;1.30;;;;;;;2.10;69.28;101035.00;10469223;28;20041;-76
2023/04/03 01:10:06;;;;;;;2.90;1.30;;;;;;;1.76;70.56;101043.00;10485483;28;20067;-75
2023/04/03 01:15:10;;;;;;;2.95;1.58;;;;;;;1.77;69.63;101046.44;10504756;28;20509;-75
2023/04/03 01:20:27;;;;;;;5.82;1.48;;;;;;;1.82;70.11;101050.03;10468886;28;20055;-76
2023/04/03 01:25:29;;;;;;;2.97;1.55;;;;;;;1.79;70.22;101054.28;10503040;28;20032;-76
2023/04/03 01:30:39;;;;;;;4.05;1.20;;;;;;;1.72;69.78;101059.31;10484481;28;20044;-75
2023/04/03 01:35:41;;;;;;;2.03;1.00;;;;;;;1.90;69.31;101058.81;10484553;28;20049;-75
2023/04/03 01:40:43;;;;;;;5.60;1.33;;;;;;;1.78;69.38;101061.19;10484337;28;20079;-76
2023/04/03 01:45:46;;;;;;;2.38;1.33;;;;;;;1.66;69.70;101074.75;10502006;28;20041;-76
2023/04/03 01:50:48;;;;;;;3.08;1.10;;;;;;;1.65;68.46;101074.75;10484977;28;20051;-76
2023/04/03 01:55:50;;;;;;;6.43;1.75;;;;;;;1.65;68.77;101078.19;10484777;28;20045;-75
2023/04/03 02:00:53;;;;;;;3.53;1.60;;;;;;;1.45;69.03;101090.72;10483551;28;20135;-75
2023/04/03 02:05:55;;;;;;;8.07;1.10;;;;;;;1.37;69.66;101091.38;10483575;28;20528;-76
2023/04/03 02:10:57;;;;;;;4.35;1.33;;;;;;;1.47;69.96;101098.53;10483469;28;20490;-76
2023/04/03 02:15:59;;;;;;;2.25;1.00;;;;;;;1.46;69.55;101100.25;10501209;28;20115;-77
2023/04/03 02:21:01;;;;;;;7.28;1.65;;;;;;;1.49;68.84;101095.13;10467283;28;20040;-75
2023/04/03 02:26:05;;;;;;;4.22;1.10;;;;;;;1.39;68.59;101095.78;10500449;28;20090;-75
2023/04/03 02:31:08;;;;;;;4.70;1.52;;;;;;;0.92;70.54;101115.34;10501413;28;20512;-76
2023/04/03 02:36:11;;;;;;;4.95;1.75;;;;;;;1.16;69.53;101115.09;10481971;28;20048;-76
2023/04/03 02:41:17;;;;;;;2.40;1.35;;;;;;;0.94;70.15;101109.41;10482104;28;20135;-76
2023/04/03 02:46:18;;;;;;;5.20;1.50;;;;;;;0.98;69.95;101124.16;10482198;28;20044;-76
2023/04/03 02:51:22;;;;;;;3.97;1.33;;;;;;;1.03;68.88;101126.00;10500081;28;20116;-77
2023/04/03 02:56:26;;;;;;;3.78;1.08;;;;;;;0.79;70.40;101129.69;10482036;28;20097;-75
2023/04/03 03:01:32;;;;;;;3.13;1.35;;;;;;;0.80;71.09;101126.31;10481284;28;20090;-76
2023/04/03 03:06:34;;;;;;;3.63;1.08;;;;;;;0.42;72.84;101128.75;10500080;28;20063;-76
2023/04/03 03:11:36;;;;;;;4.07;1.55;;;;;;;0.25;74.31;101133.47;10499060;28;20041;-76
2023/04/03 03:16:37;;;;;;;3.70;1.30;;;;;;;0.14;75.71;101142.66;10481425;28;20087;-77
2023/04/03 03:21:39;;;;;;;4.15;1.60;;;;;;;0.09;76.70;101138.16;10481028;28;20056;-76
2023/04/03 03:26:41;;;;;;;4.07;1.70;;;;;;;-0.05;76.92;101137.75;10465552;28;20044;-76
2023/04/03 03:31:43;;;;;;;4.45;1.50;;;;;;;-0.13;77.37;101140.16;10481866;28;20127;-77
2023/04/03 03:36:45;;;;;;;5.25;1.48;;;;;;;-0.12;77.64;101147.06;10464698;28;20044;-76
2023/04/03 03:41:49;;;;;;;3.20;1.30;;;;;;;-0.24;78.45;101149.28;10481014;28;20041;-76
2023/04/03 03:46:51;;;;;;;3.45;2.03;;;;;;;-0.25;78.28;101150.13;10482146;28;20044;-75
2023/04/03 03:51:53;;;;;;;3.92;1.65;;;;;;;-0.36;79.67;101156.66;10505111;28;20086;-78
2023/04/03 03:56:55;;;;;;;4.53;2.08;;;;;;;-0.41;80.56;101150.47;10490071;28;20062;-77
2023/04/03 04:01:58;;;;;;;2.63;1.35;;;;;;;-0.41;79.66;101151.34;10489981;28;20575;-77
2023/04/03 04:07:00;;;;;;;6.28;1.58;;;;;;;-0.42;80.60;101153.91;10489214;28;20132;-75
2023/04/03 04:12:03;;;;;;;5.40;2.00;;;;;;;-0.50;81.03;101158.81;10488955;28;20063;-75
2023/04/03 04:17:06;;;;;;;5.68;1.60;;;;;;;-0.71;81.67;101159.00;10488226;28;20394;-76
2023/04/03 04:22:10;;;;;;;4.65;1.60;;;;;;;-0.78;82.42;101170.88;10487870;28;20052;-76
2023/04/03 04:27:12;;;;;;;4.18;1.50;;;;;;;-0.80;82.52;101177.69;10506200;28;20048;-76
2023/04/03 04:32:14;;;;;;;6.43;1.98;;;;;;;-0.77;83.22;101180.34;10487736;28;20037;-76
2023/04/03 04:37:16;;;;;;;4.72;2.03;;;;;;;-0.86;83.74;101181.78;10496586;23;20127;-72
2023/04/03 04:42:18;;;;;;;5.47;2.13;;;;;;;-0.93;83.88;101187.53;10544758;28;20492;-72
2023/04/03 04:47:22;;;;;;;3.13;1.48;;;;;;;-0.86;83.27;101192.97;10571182;28;20047;-70
2023/04/03 04:52:25;;;;;;;3.88;1.40;;;;;;;-0.80;83.02;101197.44;10570986;28;20131;-71
2023/04/03 04:57:28;;;;;;;4.97;1.70;;;;;;;-0.94;84.75;101211.59;10554904;28;20048;-71
2023/04/03 05:02:32;;;;;;;5.25;1.90;;;;;;;-0.85;84.11;101209.34;10569354;28;20071;-72
2023/04/03 05:07:35;;;;;;;4.93;1.90;;;;;;;-0.93;85.26;101214.25;10569681;28;20043;-71
2023/04/03 05:12:37;;;;;;;4.63;1.58;;;;;;;-0.87;86.14;101216.16;10569123;28;20071;-71
2023/04/03 05:17:39;;;;;;;4.63;1.88;;;;;;;-0.68;84.25;101218.50;10571785;28;20073;-72
2023/04/03 05:22:45;;;;;;;8.73;1.92;;;;;;;-0.55;83.68;101231.00;10570766;28;20497;-72
2023/04/03 05:27:47;;;;;;;6.15;2.08;;;;;;;-0.37;82.27;101229.84;10569043;28;20044;-71
2023/04/03 05:32:49;;;;;;;8.82;1.92;;;;;;;-0.43;82.78;101225.34;10586977;28;20111;-70
2023/04/03 05:38:05;;;;;;;5.03;1.88;;;;;;;-0.48;83.93;101226.03;10569628;28;20550;-70
2023/04/03 05:43:07;;;;;;;5.20;1.80;;;;;;;-0.44;83.64;101235.63;10569297;28;20063;-71
2023/04/03 05:48:12;;;;;;;4.07;1.48;;;;;;;-0.31;81.47;101240.34;10568600;28;20043;-71
2023/04/03 05:53:23;;;;;;;4.13;1.73;;;;;;;-0.24;81.24;101237.13;10568160;28;20052;-71
2023/04/03 05:58:26;;;;;;;4.07;1.70;;;;;;;-0.28;81.58;101243.03;10568862;28;20051;-71
2023/04/03 06:03:28;;;;;;;6.05;1.80;;;;;;;-0.16;81.17;101239.97;10569003;28;20044;-71
2023/04/03 06:08:30;;;;;;;5.85;2.30;;;;;;;-0.25;80.42;101248.31;10567093;28;20071;-71
2023/04/03 06:13:33;;;;;;;4.78;2.08;;;;;;;-0.20;80.21;101251.03;10585557;28;20035;-70
2023/04/03 06:18:35;;;;;;;9.02;3.47;;;;;;;-0.11;80.23;101251.31;10566969;28;20050;-71
2023/04/03 06:23:36;;;;;;;4.13;2.10;;;;;;;-0.16;81.16;101253.75;10585602;28;20058;-71
2023/04/03 06:28:39;;;;;;;5.40;1.50;;;;;;;-0.15;79.55;101258.09;10566747;28;20079;-71
2023/04/03 06:33:41;;;;;;;5.25;1.48;;;;;;;-0.03;79.05;101252.44;10585678;28;20047;-75
2023/04/03 06:38:43;;;;;;;5.28;1.77;;;;;;;-0.26;80.65;101268.09;10585123;28;20381;-75
2023/04/03 06:43:45;;;;;;;4.50;1.63;;;;;;;-0.14;80.43;101259.84;10566597;28;20089;-73
2023/04/03 06:48:47;;;;;;;4.72;1.80;;;;;;;-0.04;80.05;101271.38;10551478;28;20053;-73
2023/04/03 06:53:50;;;;;;;6.85;1.95;;;;;;;0.03;79.81;101272.41;10584345;28;20040;-73
2023/04/03 06:58:54;;;;;;;6.70;2.00;;;;;;;0.22;78.10;101274.72;10585392;28;20126;-74
2023/04/03 07:03:57;;;;;;;7.38;1.90;;;;;;;0.12;78.78;101272.69;10566789;28;20180;-73
2023/04/03 07:08:59;;;;;;;5.68;2.35;;;;;;;0.06;78.06;101277.69;10586847;28;20111;-74
2023/04/03 07:14:01;;;;;;;5.50;2.13;;;;;;;0.19;78.68;101291.03;10585024;28;20194;-74
2023/04/03 07:19:03;;;;;;;8.20;2.33;;;;;;;0.19;76.67;101293.63;10584867;28;20109;-74
2023/04/03 07:24:05;;;;;;;4.53;1.83;;;;;;;0.24;77.93;101307.56;10583635;28;20485;-75
2023/04/03 07:29:08;;;;;;;4.82;2.30;;;;;;;0.31;77.58;101308.66;10586523;28;20040;-75
2023/04/03 07:34:11;;;;;;;8.75;2.00;;;;;;;0.38;76.16;101305.38;10584674;28;20044;-74
2023/04/03 07:39:12;;;;;;;4.20;1.70;;;;;;;0.35;75.26;101309.59;10584226;28;20050;-75
2023/04/03 07:44:14;;;;;;;5.60;2.05;;;;;;;0.41;75.61;101310.66;10585288;28;20400;-73
2023/04/03 07:49:18;;;;;;;4.70;1.70;;;;;;;0.46;76.70;101316.84;10583993;28;20511;-73
2023/04/03 07:54:20;;;;;;;5.28;1.75;;;;;;;0.64;74.33;101316.50;10585230;28;20201;-73
2023/04/03 07:59:22;;;;;;;3.72;1.83;;;;;;;0.56;75.30;101311.94;10584496;28;20489;-74
2023/04/03 08:04:25;;;;;;;3.55;1.42;;;;;;;0.79;74.59;101318.66;10565252;28;20046;-74
2023/04/03 08:09:27;;;;;;;36.22;8.30;;;;;;;0.85;74.55;101316.25;10584162;28;20040;-74
2023/04/03 08:14:34;;;;;;;3.90;1.63;;;;;;;0.97;74.32;101313.09;10585338;28;20038;-74
2023/04/03 08:19:35;;;;;;;4.07;1.90;;;;;;;1.21;73.17;101313.78;10582918;28;20071;-75
2023/04/03 08:24:37;;;;;;;9.25;1.40;;;;;;;1.31;72.72;101312.31;10582430;28;20054;-74
2023/04/03 08:29:43;;;;;;;4.22;1.20;;;;;;;1.48;70.63;101320.53;10565520;28;20506;-73
2023/04/03 08:34:46;;;;;;;4.32;1.67;;;;;;;1.67;70.69;101316.69;10566534;28;20055;-73
2023/04/03 08:39:47;;;;;;;5.55;1.50;;;;;;;1.76;69.92;101324.69;10590753;28;20042;-75
2023/04/03 08:44:55;;;;;;;4.65;1.75;;;;;;;1.88;69.28;101327.56;10591155;28;20050;-74
2023/04/03 08:50:00;;;;;;;4.80;3.03;;;;;;;1.77;69.79;101327.31;10572431;28;20065;-73
2023/04/03 08:55:06;;;;;;;3.50;1.50;;;;;;;1.94;68.74;101319.06;10590407;28;20466;-74
2023/04/03 09:00:14;;;;;;;4.60;1.50;;;;;;;2.16;67.96;101326.50;10590707;28;20485;-73
2023/04/03 09:05:16;;;;;;;4.22;1.65;;;;;;;2.28;67.77;101328.50;10571010;28;20047;-74
2023/04/03 09:10:26;;;;;;;3.78;1.35;;;;;;;2.39;66.55;101327.03;10588486;28;20501;-73
2023/04/03 09:15:28;;;;;;;5.05;1.60;;;;;;;2.43;66.41;101325.38;10589189;28;20105;-73
2023/04/03 09:21:01;;;;;;;5.00;1.50;;;;;;;2.56;65.84;101322.19;10589495;28;20550;-73
2023/04/03 09:26:09;;;;;;;4.30;1.23;;;;;;;2.86;63.51;101314.19;10587899;28;20047;-74
2023/04/03 09:31:23;;;;;;;3.17;1.10;;;;;;;3.29;63.25;101315.88;10587922;28;20485;-73
2023/04/03 09:36:46;;;;;;;3.83;1.77;;;;;;;3.02;62.34;101316.25;10569790;28;20039;-73
2023/04/03 09:42:07;;;;;;;3.42;1.15;;;;;;;3.37;61.25;101316.03;10588849;28;20043;-74
2023/04/03 09:47:29;;;;;;;14.80;5.13;;;;;;;3.36;61.17;101316.84;10587090;28;20039;-73
2023/04/03 09:52:31;;;;;;;3.65;1.55;;;;;;;3.67;61.63;101309.59;10586941;28;20400;-73
2023/04/03 09:57:33;;;;;;;2.15;0.82;;;;;;;4.92;53.39;101300.97;10568103;28;20052;-73
2023/04/03 10:02:38;;;;;;;6.88;1.85;;;;;;;5.31;53.69;101303.13;10588277;28;20119;-73
2023/04/03 10:07:40;;;;;;;3.90;1.00;;;;;;;4.88;54.17;101290.50;10587949;28;20073;-73
2023/04/03 10:13:24;;;;;;;3.85;1.10;;;;;;;4.32;56.00;101293.25;10586982;28;20048;-75
2023/04/03 10:18:32;;;;;;;5.57;0.90;;;;;;;4.32;53.28;101290.63;10586157;28;20078;-73
2023/04/03 10:23:48;;;;;;;3.55;0.93;;;;;;;5.13;54.33;101283.81;10586860;28;20039;-72
2023/04/03 10:29:03;;;;;;;2.03;0.80;;;;;;;5.29;49.81;101277.91;10585450;28;20043;-72
2023/04/03 10:34:24;;;;;;;2.17;0.77;;;;;;;4.69;50.88;101277.25;10567753;28;20055;-72
2023/04/03 10:39:54;;;;;;;3.65;0.80;;;;;;;4.75;50.89;101276.44;10556678;22;20080;-74
2023/04/03 10:45:19;;;;;;;7.75;1.88;;;;;;;4.75;49.68;101268.63;10580751;28;20039;-73
2023/04/03 10:51:00;;;;;;;2.17;0.90;;;;;;;4.25;49.95;101272.34;10585675;28;20048;-74
2023/04/03 10:56:31;;;;;;;2.95;0.60;;;;;;;4.36;48.14;101261.19;10558989;28;20052;-74
2023/04/03 11:01:38;;;;;;;2.85;0.70;;;;;;;4.76;48.35;101260.81;10583963;28;20043;-74
2023/04/03 11:07:01;;;;;;;1.77;0.70;;;;;;;4.35;46.27;101255.13;10584928;28;20437;-74
2023/04/03 11:12:09;;;;;;;1.98;0.90;;;;;;;4.43;47.15;101252.63;10585627;28;20043;-75
2023/04/03 11:17:12;;;;;;;1.95;0.50;;;;;;;4.58;45.57;101249.31;10583799;28;20057;-75
2023/04/03 11:22:26;;;;;;;2.67;0.75;;;;;;;4.39;45.37;101246.50;10584629;28;20119;-75
2023/04/03 11:27:37;;;;;;;3.25;0.85;;;;;;;4.51;47.12;101243.16;10549073;28;20519;-75
2023/04/03 11:32:45;;;;;;;2.38;0.88;;;;;;;4.68;47.93;101246.84;10583816;28;20040;-75
2023/04/03 11:37:51;;;;;;;2.05;0.68;;;;;;;4.75;43.52;101237.38;10584071;28;20047;-75
2023/04/03 11:43:02;;;;;;;2.17;0.70;;;;;;;4.76;45.39;101233.91;10583918;28;20093;-75
2023/04/03 11:48:33;;;;;;;1.73;0.70;;;;;;;4.75;46.57;101232.16;10549788;28;20055;-74
2023/04/03 11:53:39;;;;;;;3.25;0.70;;;;;;;5.10;46.32;101235.16;10583833;28;20073;-74
2023/04/03 11:59:16;;;;;;;1.85;0.60;;;;;;;4.85;45.47;101228.78;10584034;28;20053;-74
2023/04/03 12:04:20;;;;;;;3.03;0.85;;;;;;;4.67;45.67;101234.69;10582270;28;20035;-74
2023/04/03 12:09:39;;;;;;;2.72;0.82;;;;;;;4.36;45.97;101228.22;10578822;28;20051;-74
2023/04/03 12:14:41;;;;;;;2.75;1.48;;;;;;;4.44;45.79;101229.19;10554991;28;20452;-74
2023/04/03 12:19:46;;;;;;;6.07;0.82;;;;;;;4.51;45.43;101228.41;10590067;27;20047;-75
2023/04/03 12:24:51;;;;;;;1.98;0.80;;;;;;;4.95;44.59;101220.22;10589692;28;20504;-75
2023/04/03 12:30:03;;;;;;;1.25;0.50;;;;;;;5.04;44.96;101220.28;10571343;28;20048;-74
2023/04/03 12:35:26;;;;;;;2.72;0.82;;;;;;;4.61;46.46;101220.72;10612642;27;20138;-74
2023/04/03 12:40:42;;;;;;;3.00;1.00;;;;;;;4.35;47.14;101218.69;10587466;28;20035;-75
2023/04/03 12:45:50;;;;;;;1.67;0.70;;;;;;;4.64;45.71;101212.94;10589478;28;20039;-74
2023/04/03 12:50:54;;;;;;;2.47;0.80;;;;;;;4.86;45.29;101216.63;10590082;28;20089;-75
2023/04/03 12:56:17;;;;;;;2.65;1.10;;;;;;;4.51;45.72;101211.91;10589649;28;20071;-74
2023/04/03 13:01:26;;;;;;;3.42;0.90;;;;;;;4.49;47.12;101222.31;10571376;28;20043;-75
2023/04/03 13:06:39;;;;;;;2.13;0.82;;;;;;;4.58;46.73;101218.94;10590542;27;20045;-74
2023/04/03 13:11:42;;;;;;;2.28;1.30;;;;;;;4.67;46.68;101212.97;10626929;27;20065;-74
2023/04/03 13:17:10;;;;;;;2.50;0.82;;;;;;;4.78;47.72;101221.75;10589540;28;20046;-76
2023/04/03 13:22:27;;;;;;;3.70;1.13;;;;;;;4.49;46.94;101219.72;10589194;28;20036;-73
2023/04/03 13:27:30;;;;;;;2.63;0.70;;;;;;;4.54;47.88;101218.03;10589563;28;20039;-74
2023/04/03 13:32:32;;;;;;;4.53;1.15;;;;;;;4.66;46.96;101217.31;10590302;28;20047;-74
2023/04/03 13:37:35;;;;;;;2.17;0.77;;;;;;;4.82;45.97;101215.72;10589200;28;20048;-74
2023/04/03 13:42:40;;;;;;;1.25;0.50;;;;;;;4.68;45.05;101215.56;10624272;27;20039;-74
2023/04/03 13:47:45;;;;;;;2.10;0.70;;;;;;;4.84;44.57;101207.94;10632648;27;20066;-75
2023/04/03 13:52:59;;;;;;;2.60;0.90;;;;;;;5.03;45.89;101202.91;10615579;27;20043;-74
2023/04/03 13:58:07;;;;;;;1.77;0.80;;;;;;;4.80;46.06;101202.69;10631038;27;20074;-74
2023/04/03 14:03:24;;;;;;;1.88;0.70;;;;;;;4.44;46.26;101199.69;10625442;27;20035;-75
2023/04/03 14:08:27;;;;;;;;;;;;;;;4.41;46.24;101197.91;10587643;28;20089;-73
2023/04/03 14:13:45;;;;;;;2.08;0.90;;;;;;;4.29;46.50;101197.75;10590126;27;19966;-74
2023/04/03 14:18:48;;;;;;;2.72;0.90;;;;;;;4.17;46.72;101190.69;10630833;27;20446;-74
2023/04/03 14:23:50;;;;;;;2.13;0.82;;;;;;;4.38;46.32;101202.19;10609817;27;20096;-74
2023/04/03 14:28:53;;;;;;;2.10;1.00;;;;;;;4.35;46.87;101207.41;10610575;27;20043;-75
2023/04/03 14:33:55;;;;;;;2.33;0.70;;;;;;;4.41;45.78;101203.13;10628142;27;20043;-74
2023/04/03 14:38:58;;;;;;;2.75;1.10;;;;;;;4.37;46.32;101205.66;10628314;27;20046;-76
2023/04/03 14:44:00;;;;;;;2.75;0.90;;;;;;;4.27;47.13;101199.47;10629030;27;20027;-76
2023/04/03 14:49:12;;;;;;;1.98;1.30;;;;;;;4.16;46.98;101203.66;10628768;27;20067;-74
2023/04/03 14:54:21;;;;;;;2.33;0.73;;;;;;;3.96;47.60;101206.88;10630072;27;20083;-75
2023/04/03 14:59:23;;;;;;;1.90;1.10;;;;;;;3.98;46.29;101202.56;10630943;27;20050;-74
2023/04/03 15:04:28;;;;;;;17.77;11.32;;;;;;;3.97;47.29;101202.53;10629659;27;20039;-75
2023/04/03 15:09:35;;;;;;;3.88;1.48;;;;;;;4.30;47.39;101196.94;10629165;27;20467;-75
2023/04/03 15:14:37;;;;;;;1.50;0.80;;;;;;;4.34;46.31;101190.00;10609494;27;20111;-75
2023/04/03 15:19:43;;;;;;;1.70;0.90;;;;;;;4.44;45.64;101190.16;10629788;27;20074;-74
2023/04/03 15:24:45;;;;;;;2.90;1.00;;;;;;;4.41;45.26;101187.50;10628435;27;20047;-75
2023/04/03 15:29:50;;;;;;;3.28;0.82;;;;;;;4.30;45.63;101186.50;10627533;28;20043;-75
2023/04/03 15:34:53;;;;;;;5.05;1.67;;;;;;;4.34;46.28;101195.22;10592336;28;20126;-75
2023/04/03 15:39:57;;;;;;;2.00;1.20;;;;;;;4.09;45.71;101191.44;10629347;28;20430;-75
2023/04/03 15:44:59;;;;;;;1.48;0.90;;;;;;;4.05;46.34;101199.19;10628084;27;20122;-74
2023/04/03 15:50:01;;;;;;;2.70;1.13;;;;;;;3.99;45.64;101196.53;10618544;27;20039;-75
2023/04/03 15:55:04;;;;;;;3.72;1.15;;;;;;;3.93;46.30;101199.03;10635707;27;20046;-75
2023/04/03 16:00:07;;;;;;;2.15;1.13;;;;;;;3.58;47.43;101193.31;10636655;27;20047;-75
2023/04/03 16:05:09;;;;;;;2.50;1.10;;;;;;;3.56;47.91;101209.75;10636012;27;20042;-74
2023/04/03 16:10:13;;;;;;;2.70;1.20;;;;;;;3.38;48.10;101208.59;10636999;27;20039;-74
2023/04/03 16:15:15;;;;;;;1.90;0.88;;;;;;;3.47;47.82;101211.34;10604461;27;20046;-75
2023/04/03 16:20:18;;;;;;;2.25;0.98;;;;;;;3.27;47.87;101203.22;10574869;28;20126;-74
2023/04/03 16:25:20;;;;;;;2.75;1.15;;;;;;;3.29;47.58;101208.47;10592528;28;20040;-75
2023/04/03 16:30:23;;;;;;;2.83;1.30;;;;;;;3.22;47.80;101204.00;10593164;28;20469;-75
2023/04/03 16:35:24;;;;;;;2.13;0.80;;;;;;;3.22;47.79;101209.19;10592006;28;20515;-74
2023/04/03 16:40:26;;;;;;;1.38;0.77;;;;;;;3.42;46.86;101209.53;10580216;22;20428;-72
2023/04/03 16:45:28;;;;;;;3.55;1.13;;;;;;;3.21;47.28;101207.44;10573104;28;20039;-71
2023/04/03 16:50:30;;;;;;;2.72;1.02;;;;;;;3.24;46.45;101204.91;10590716;28;20051;-71
2023/04/03 16:55:31;;;;;;;2.75;0.77;;;;;;;3.11;46.31;101206.44;10589650;28;20036;-71
2023/04/03 17:00:33;;;;;;;2.42;0.60;;;;;;;3.04;45.45;101212.34;10590040;28;20039;-72
2023/04/03 17:05:35;;;;;;;2.78;0.70;;;;;;;3.00;46.96;101206.22;10572248;28;20035;-70
2023/04/03 17:10:37;;;;;;;3.58;0.90;;;;;;;2.93;46.73;101212.16;10591382;28;20043;-72
2023/04/03 17:15:39;;;;;;;2.13;0.95;;;;;;;2.95;46.95;101207.88;10589419;28;20081;-72
2023/04/03 17:20:41;;;;;;;1.50;0.80;;;;;;;2.69;46.69;101207.38;10589862;28;20069;-70
2023/04/03 17:25:43;;;;;;;3.03;1.15;;;;;;;2.88;46.63;101220.69;10591314;28;20043;-70
2023/04/03 17:30:45;;;;;;;1.75;0.90;;;;;;;2.62;46.95;101228.03;10571001;27;20043;-71
2023/04/03 17:35:47;;;;;;;2.20;0.80;;;;;;;2.49;46.88;101222.56;10588563;28;20492;-71
2023/04/03 17:40:48;;;;;;;2.50;1.00;;;;;;;2.53;47.00;101229.59;10569429;28;20054;-71
2023/04/03 17:45:50;;;;;;;3.63;1.05;;;;;;;2.44;46.93;101229.41;10582078;27;20036;-72
2023/04/03 17:50:52;;;;;;;1.75;1.08;;;;;;;2.30;47.04;101236.00;10587340;28;20051;-72
2023/04/03 17:55:54;;;;;;;2.30;1.20;;;;;;;2.32;47.37;101238.66;10589753;28;20050;-71
2023/04/03 18:00:56;;;;;;;2.45;1.00;;;;;;;2.36;47.60;101233.56;10588309;28;20476;-71
2023/04/03 18:06:02;;;;;;;1.45;1.00;;;;;;;1.94;48.66;101241.28;10588099;28;20047;-71
2023/04/03 18:11:04;;;;;;;4.00;1.40;;;;;;;1.92;49.23;101238.66;10570418;28;20047;-72
2023/04/03 18:16:09;;;;;;;2.35;1.00;;;;;;;1.69;51.35;101234.66;10588611;28;20031;-70
2023/04/03 18:21:13;;;;;;;3.30;1.35;;;;;;;1.49;52.48;101229.88;10568899;28;20109;-70
2023/04/03 18:26:15;;;;;;;2.42;1.30;;;;;;;1.39;52.96;101233.06;10584837;28;20476;-70
2023/04/03 18:31:22;;;;;;;4.40;1.77;;;;;;;1.41;52.76;101238.28;10585712;28;20078;-71
2023/04/03 18:36:26;;;;;;;2.42;1.60;;;;;;;1.41;53.94;101233.97;10587276;28;20035;-71
2023/04/03 18:41:30;;;;;;;4.47;2.72;;;;;;;1.61;53.23;101231.00;10585384;28;20040;-71
2023/04/03 18:46:32;;;;;;;4.20;2.75;;;;;;;2.02;51.49;101225.03;10587500;28;20515;-71
2023/04/03 18:51:37;;;;;;;6.70;4.40;;;;;;;1.68;53.62;101227.69;10588786;28;20050;-71
2023/04/03 18:56:39;;;;;;;5.45;4.05;;;;;;;1.41;54.88;101223.63;10590036;28;20067;-72
2023/04/03 19:01:44;;;;;;;5.15;3.95;;;;;;;1.26;55.80;101224.13;10589675;28;20051;-72
2023/04/03 19:06:46;;;;;;;7.13;3.50;;;;;;;1.27;56.31;101217.22;10587980;28;20472;-72
2023/04/03 19:11:48;;;;;;;4.88;4.40;;;;;;;1.51;54.61;101220.44;10568951;28;20130;-72
2023/04/03 19:16:50;;;;;;;6.28;5.32;;;;;;;1.50;55.06;101215.19;10587785;28;20035;-72
2023/04/03 19:21:52;;;;;;;6.15;3.58;;;;;;;1.63;54.39;101224.13;10569439;28;20051;-72
2023/04/03 19:26:54;;;;;;;3.38;2.53;;;;;;;1.69;54.57;101226.88;10588502;28;20111;-72
2023/04/03 19:31:55;;;;;;;3.90;2.03;;;;;;;1.70;54.67;101228.63;10586843;28;20050;-72
2023/04/03 19:36:58;;;;;;;4.32;2.80;;;;;;;1.82;54.76;101221.16;10588912;28;20115;-73
2023/04/03 19:42:04;;;;;;;3.42;1.48;;;;;;;1.70;54.25;101223.44;10590133;28;20089;-72
2023/04/03 19:47:06;;;;;;;2.42;1.40;;;;;;;1.66;53.52;101219.03;10568309;28;20039;-71
2023/04/03 19:52:08;;;;;;;3.60;1.80;;;;;;;1.68;53.39;101219.94;10569137;28;20050;-71
2023/04/03 19:57:09;;;;;;;3.88;1.88;;;;;;;1.84;53.80;101216.84;10567349;28;20047;-70
2023/04/03 20:02:11;;;;;;;4.18;2.42;;;;;;;1.83;54.45;101215.13;10588369;28;20050;-72
2023/04/03 20:07:13;;;;;;;4.18;1.80;;;;;;;1.68;55.09;101214.75;10567872;28;20404;-72
2023/04/03 20:12:15;;;;;;;3.25;1.75;;;;;;;1.72;54.84;101216.56;10585993;28;20550;-72
2023/04/03 20:17:17;;;;;;;2.58;1.58;;;;;;;1.72;55.30;101219.16;10568910;28;20042;-71
2023/04/03 20:22:19;;;;;;;2.88;1.77;;;;;;;1.58;55.83;101213.66;10588028;28;20504;-72
2023/04/03 20:27:21;;;;;;;3.13;1.40;;;;;;;1.67;56.64;101219.06;10590030;28;20043;-72
2023/04/03 20:32:23;;;;;;;2.97;2.10;;;;;;;1.59;57.37;101215.41;10589380;28;20078;-74
2023/04/03 20:37:25;;;;;;;3.83;2.05;;;;;;;1.57;58.13;101206.72;10578463;28;20541;-72
2023/04/03 20:42:26;;;;;;;3.72;2.22;;;;;;;1.72;59.19;101201.88;10596854;28;20040;-71
2023/04/03 20:47:29;;;;;;;3.88;1.88;;;;;;;1.73;59.67;101201.06;10578911;28;20408;-72
2023/04/03 20:52:31;;;;;;;4.65;1.80;;;;;;;1.71;60.16;101199.28;10576863;28;20046;-72
2023/04/03 20:57:34;;;;;;;3.28;1.92;;;;;;;1.75;60.68;101199.38;10576630;28;20086;-72
2023/04/03 21:02:35;;;;;;;3.33;1.98;;;;;;;1.72;61.87;101194.13;10592137;28;20152;-71
2023/04/03 21:08:15;;;;;;;4.13;1.75;;;;;;;1.72;62.66;101201.00;10593664;28;20105;-71
2023/04/03 21:13:55;;;;;;;3.88;2.10;;;;;;;1.65;63.33;101201.72;10571944;28;20048;-72
2023/04/03 21:19:12;;;;;;;4.10;2.22;;;;;;;1.76;63.61;101198.53;10591646;28;20130;-71
2023/04/03 21:24:16;;;;;;;3.00;1.80;;;;;;;1.75;64.45;101203.69;10589659;28;20046;-71
2023/04/03 21:29:17;;;;;;;4.22;2.25;;;;;;;1.70;65.03;101187.16;10590840;28;20047;-72
2023/04/03 21:34:21;;;;;;;4.35;2.20;;;;;;;1.62;65.81;101196.47;10588647;28;20039;-72
2023/04/03 21:39:23;;;;;;;3.58;2.38;;;;;;;1.68;66.59;101188.81;10589001;28;20050;-72
2023/04/03 21:44:27;;;;;;;3.75;2.08;;;;;;;1.68;67.32;101194.00;10569591;28;20146;-71
2023/04/03 21:49:28;;;;;;;4.40;2.15;;;;;;;1.74;67.58;101192.44;10571449;28;20051;-71
2023/04/03 21:54:30;;;;;;;3.95;2.22;;;;;;;1.65;68.71;101189.66;10591342;28;20407;-71
2023/04/03 21:59:33;;;;;;;4.57;2.20;;;;;;;1.75;69.19;101191.59;10569791;28;20076;-71
2023/04/03 22:04:34;;;;;;;5.00;2.22;;;;;;;1.69;69.27;101180.22;10587937;28;20036;-71
2023/04/03 22:09:36;;;;;;;4.22;2.35;;;;;;;1.60;70.24;101174.84;10568249;28;20424;-71
2023/04/03 22:14:38;;;;;;;4.28;2.13;;;;;;;1.59;71.07;101173.06;10587820;28;20078;-71
2023/04/03 22:19:40;;;;;;;4.85;2.33;;;;;;;1.58;71.29;101174.78;10586048;28;20063;-71
2023/04/03 22:24:42;;;;;;;3.80;2.60;;;;;;;1.50;71.93;101173.72;10567656;28;20096;-71
2023/04/03 22:29:43;;;;;;;4.93;2.40;;;;;;;1.65;72.50;101170.63;10586224;28;20048;-71
2023/04/03 22:34:45;;;;;;;4.88;2.10;;;;;;;1.60;73.30;101167.94;10587589;28;20073;-71
2023/04/03 22:39:46;;;;;;;3.92;2.05;;;;;;;1.58;73.14;101166.13;10560728;22;20048;-75
2023/04/03 22:44:48;;;;;;;2.53;1.92;;;;;;;1.58;73.64;101163.53;10542880;28;20040;-73
2023/04/03 22:49:50;;;;;;;3.30;2.35;;;;;;;1.45;74.07;101165.84;10544897;28;20048;-73
2023/04/03 22:54:51;;;;;;;3.95;1.77;;;;;;;1.56;74.67;101152.28;10543069;28;20059;-74
2023/04/03 22:59:53;;;;;;;5.80;2.70;;;;;;;1.57;73.18;101160.09;10543360;28;20416;-73
2023/04/03 23:04:55;;;;;;;3.65;1.63;;;;;;;1.74;73.49;101157.88;10543390;28;20036;-75
2023/04/03 23:09:57;;;;;;;3.13;2.20;;;;;;;1.64;74.12;101150.72;10543665;28;20047;-74
2023/04/03 23:14:59;;;;;;;3.30;2.03;;;;;;;1.96;73.36;101152.31;10526148;28;20091;-73
2023/04/03 23:20:00;;;;;;;2.40;1.80;;;;;;;1.68;74.36;101158.63;10544538;28;20074;-74
2023/04/03 23:25:02;;;;;;;3.90;1.70;;;;;;;1.65;74.99;101152.50;10544307;28;20071;-74
2023/04/03 23:30:05;;;;;;;3.20;1.90;;;;;;;1.97;73.34;101151.47;10543122;28;20123;-74
2023/04/03 23:35:07;;;;;;;4.78;1.70;;;;;;;2.05;72.35;101150.75;10526509;28;20054;-74
2023/04/03 23:40:10;;;;;;;3.63;1.67;;;;;;;1.91;72.99;101163.44;10500699;28;1239429;-74